createdAt,value
2022-08-10T00:02:13.163Z,2.70
2022-08-10T00:04:39.676Z,2.70
2022-08-10T00:07:06.261Z,2.92
2022-08-10T00:09:32.818Z,2.60
2022-08-10T00:12:16.920Z,2.78
2022-08-10T00:14:43.420Z,2.90
2022-08-10T00:17:09.932Z,2.80
2022-08-10T00:20:03.018Z,2.40
2022-08-10T00:22:23.466Z,2.40
2022-08-10T00:24:50.031Z,2.58
2022-08-10T00:27:49.981Z,2.67
2022-08-10T00:30:04.141Z,2.65
2022-08-10T00:32:30.745Z,2.88
2022-08-10T00:34:57.309Z,2.72
2022-08-10T00:37:23.814Z,2.53
2022-08-10T00:39:50.417Z,2.13
2022-08-10T00:42:17.117Z,2.47
2022-08-10T00:44:53.507Z,2.83
2022-08-10T00:47:37.154Z,2.83
2022-08-10T00:50:07.316Z,2.97
2022-08-10T00:52:36.474Z,2.30
2022-08-10T00:55:05.042Z,2.67
2022-08-10T00:57:32.810Z,3.10
2022-08-10T01:00:00.462Z,3.03
2022-08-10T01:02:29.876Z,2.85
2022-08-10T01:05:01.609Z,2.72
2022-08-10T01:07:56.062Z,2.72
2022-08-10T01:10:29.709Z,2.80
2022-08-10T01:13:34.500Z,2.85
2022-08-10T01:16:13.989Z,2.50
2022-08-10T01:19:04.043Z,2.47
2022-08-10T01:21:57.014Z,2.90
2022-08-10T01:25:01.468Z,2.50
2022-08-10T01:27:51.334Z,2.67
2022-08-10T01:30:20.001Z,2.85
2022-08-10T01:32:57.852Z,3.08
2022-08-10T01:35:39.882Z,2.85
2022-08-10T01:38:09.638Z,3.10
2022-08-10T01:40:42.269Z,2.83
2022-08-10T01:43:10.945Z,2.47
2022-08-10T01:45:44.918Z,2.33
2022-08-10T01:48:34.331Z,2.53
2022-08-10T01:51:13.033Z,3.08
2022-08-10T01:53:43.610Z,2.78
2022-08-10T01:56:15.503Z,2.88
2022-08-10T01:58:44.036Z,2.72
2022-08-10T02:01:17.128Z,2.50
2022-08-10T02:04:04.046Z,2.80
2022-08-10T02:06:35.340Z,2.47
2022-08-10T02:09:05.970Z,2.70
2022-08-10T02:12:06.376Z,2.08
2022-08-10T02:14:23.703Z,2.58
2022-08-10T02:16:52.460Z,2.90
2022-08-10T02:19:24.373Z,2.70
2022-08-10T02:22:36.125Z,2.88
2022-08-10T02:24:44.077Z,3.05
2022-08-10T02:27:12.554Z,2.97
2022-08-10T02:29:42.471Z,2.55
2022-08-10T02:32:11.171Z,2.38
2022-08-10T02:34:39.520Z,2.75
2022-08-10T02:37:11.120Z,2.58
2022-08-10T02:39:40.397Z,2.67
2022-08-10T02:45:19.603Z,2.42
2022-08-10T02:45:29.371Z,2.78
2022-08-10T02:48:07.319Z,3.38
2022-08-10T02:50:36.178Z,2.65
2022-08-10T02:53:51.410Z,3.25
2022-08-10T02:56:10.091Z,3.28
2022-08-10T02:59:03.506Z,2.70
2022-08-10T03:01:33.957Z,2.78
2022-08-10T03:04:06.464Z,2.55
2022-08-10T03:06:38.666Z,3.22
2022-08-10T03:09:08.434Z,2.97
2022-08-10T03:12:37.478Z,3.13
2022-08-10T03:14:25.296Z,3.15
2022-08-10T03:16:54.438Z,3.05
2022-08-10T03:20:33.704Z,3.13
2022-08-10T03:22:10.398Z,3.28
2022-08-10T03:24:38.009Z,2.83
2022-08-10T03:27:05.498Z,2.85
2022-08-10T03:30:29.938Z,2.75
2022-08-10T03:32:20.654Z,3.00
2022-08-10T03:34:47.788Z,2.90
2022-08-10T03:37:14.389Z,3.60
2022-08-10T03:39:41.038Z,3.42
2022-08-10T03:42:12.877Z,3.08
2022-08-10T03:44:41.955Z,2.90
2022-08-10T03:47:15.977Z,2.97
2022-08-10T03:49:46.793Z,3.50
2022-08-10T03:54:41.562Z,2.88
2022-08-10T03:57:08.512Z,3.78
2022-08-10T03:59:36.591Z,3.58
2022-08-10T04:02:45.387Z,3.00
2022-08-10T04:04:54.892Z,3.22
2022-08-10T04:07:21.518Z,3.20
2022-08-10T04:09:54.354Z,3.40
2022-08-10T04:12:22.983Z,3.35
2022-08-10T04:14:52.359Z,3.05
2022-08-10T04:17:56.948Z,3.58
2022-08-10T04:20:25.551Z,3.30
2022-08-10T04:22:59.646Z,3.10
2022-08-10T04:25:27.812Z,3.20
2022-08-10T04:27:55.310Z,2.97
2022-08-10T04:30:23.234Z,3.53
2022-08-10T04:32:53.644Z,3.05
2022-08-10T04:35:21.288Z,3.05
2022-08-10T04:37:49.637Z,3.13
2022-08-10T04:40:28.547Z,2.97
2022-08-10T04:43:01.211Z,2.40
2022-08-10T04:45:49.928Z,2.20
2022-08-10T04:48:41.350Z,2.30
2022-08-10T04:51:04.106Z,2.28
2022-08-10T04:53:30.813Z,2.22
2022-08-10T04:55:57.457Z,2.25
2022-08-10T04:58:24.130Z,1.73
2022-08-10T05:00:50.848Z,2.67
2022-08-10T05:03:17.452Z,2.13
2022-08-10T05:05:46.259Z,2.20
2022-08-10T05:08:15.160Z,1.80
2022-08-10T05:10:41.847Z,1.80
2022-08-10T05:13:08.856Z,2.00
2022-08-10T05:15:35.424Z,2.25
2022-08-10T05:18:08.214Z,2.15
2022-08-10T05:20:36.772Z,1.60
2022-08-10T05:23:03.551Z,1.73
2022-08-10T05:25:32.971Z,1.50
2022-08-10T05:28:06.776Z,1.30
2022-08-10T05:30:34.167Z,1.50
2022-08-10T05:33:06.606Z,1.23
2022-08-10T05:35:56.547Z,1.48
2022-08-10T05:38:23.808Z,1.67
2022-08-10T05:40:50.591Z,1.95
2022-08-10T05:43:19.394Z,2.15
2022-08-10T05:46:19.568Z,1.40
2022-08-10T05:48:55.191Z,1.52
2022-08-10T05:51:22.095Z,2.03
2022-08-10T05:54:03.570Z,1.50
2022-08-10T05:56:54.088Z,1.45
2022-08-10T06:00:30.944Z,1.50
2022-08-10T06:02:35.803Z,1.10
2022-08-10T06:05:14.750Z,1.10
2022-08-10T06:08:08.708Z,1.23
2022-08-10T06:10:37.341Z,1.13
2022-08-10T06:14:13.439Z,1.67
2022-08-10T06:16:31.159Z,1.65
2022-08-10T06:18:59.535Z,1.50
2022-08-10T06:21:28.018Z,1.20
2022-08-10T06:23:55.358Z,1.40
2022-08-10T06:26:21.952Z,1.08
2022-08-10T06:29:02.679Z,1.38
2022-08-10T06:31:35.945Z,1.40
2022-08-10T06:34:19.254Z,2.28
2022-08-10T06:36:47.041Z,1.77
2022-08-10T06:39:32.311Z,1.40
2022-08-10T06:42:16.841Z,1.23
2022-08-10T06:44:55.531Z,0.77
2022-08-10T06:47:26.740Z,1.20
2022-08-10T06:50:00.066Z,1.13
2022-08-10T06:52:31.434Z,0.85
2022-08-10T06:55:01.363Z,1.15
2022-08-10T06:57:35.367Z,1.00
2022-08-10T07:00:04.173Z,1.10
2022-08-10T07:05:07.006Z,1.10
2022-08-10T07:07:38.671Z,1.20
2022-08-10T07:10:06.876Z,1.40
2022-08-10T07:12:36.872Z,1.20
2022-08-10T07:15:08.548Z,1.35
2022-08-10T07:17:39.519Z,1.10
2022-08-10T07:20:09.483Z,1.40
2022-08-10T07:23:56.042Z,1.00
2022-08-10T07:25:28.404Z,1.60
2022-08-10T07:27:58.751Z,1.50
2022-08-10T07:30:30.329Z,1.02
2022-08-10T07:32:57.620Z,1.17
2022-08-10T07:35:26.861Z,1.10
2022-08-10T07:37:55.005Z,1.20
2022-08-10T07:40:23.653Z,0.90
2022-08-10T07:42:54.022Z,1.25
2022-08-10T07:45:20.850Z,1.27
2022-08-10T07:48:07.186Z,1.13
2022-08-10T07:50:39.850Z,1.40
2022-08-10T07:53:10.113Z,1.33
2022-08-10T07:56:01.420Z,0.90
2022-08-10T07:58:36.509Z,1.40
2022-08-10T08:01:03.486Z,0.95
2022-08-10T08:03:32.879Z,1.20
2022-08-10T08:08:33.179Z,1.15
2022-08-10T08:11:01.837Z,1.15
2022-08-10T08:13:30.898Z,0.90
2022-08-10T08:19:03.825Z,1.10
2022-08-10T08:24:09.795Z,1.00
2022-08-10T08:24:30.976Z,1.17
2022-08-10T08:27:02.273Z,1.17
2022-08-10T08:29:31.502Z,1.25
2022-08-10T08:34:32.723Z,1.30
2022-08-10T08:37:02.445Z,0.93
2022-08-10T08:39:31.845Z,0.55
2022-08-10T08:42:35.587Z,1.08
2022-08-10T08:45:07.670Z,0.75
2022-08-10T08:48:03.640Z,1.00
2022-08-10T08:50:56.671Z,0.98
2022-08-10T08:54:01.614Z,0.98
2022-08-10T08:56:45.751Z,0.63
2022-08-10T08:59:32.695Z,0.80
2022-08-10T09:02:27.790Z,0.68
2022-08-10T09:05:27.134Z,0.90
2022-08-10T09:11:11.310Z,0.70
2022-08-10T09:13:54.338Z,0.73
2022-08-10T09:16:51.733Z,0.70
2022-08-10T09:19:58.044Z,0.73
2022-08-10T09:23:18.822Z,0.60
2022-08-10T09:25:54.805Z,0.90
2022-08-10T09:28:27.403Z,1.00
2022-08-10T09:31:23.110Z,0.57
2022-08-10T09:36:20.568Z,0.88
2022-08-10T09:37:04.468Z,0.70
2022-08-10T09:40:56.091Z,0.98
2022-08-10T09:42:39.403Z,0.88
2022-08-10T09:45:14.834Z,0.73
2022-08-10T09:48:18.954Z,0.85
2022-08-10T09:54:01.405Z,0.60
2022-08-10T09:57:06.973Z,0.47
2022-08-10T10:00:00.638Z,1.15
2022-08-10T10:03:07.317Z,0.40
2022-08-10T10:05:52.102Z,0.77
2022-08-10T10:08:29.268Z,0.85
2022-08-10T10:11:19.223Z,0.80
2022-08-10T10:14:09.242Z,0.95
2022-08-10T10:16:57.348Z,0.75
2022-08-10T10:19:49.279Z,0.95
2022-08-10T10:22:27.724Z,0.52
2022-08-10T10:25:19.627Z,1.00
2022-08-10T10:28:06.448Z,0.93
2022-08-10T10:30:44.408Z,0.50
2022-08-10T10:33:20.792Z,0.65
2022-08-10T10:35:55.165Z,0.88
2022-08-10T10:38:26.868Z,0.90
2022-08-10T10:41:21.249Z,1.10
2022-08-10T10:44:11.352Z,0.68
2022-08-10T10:47:02.710Z,0.52
2022-08-10T10:50:06.374Z,0.52
2022-08-10T10:52:51.826Z,0.70
2022-08-10T10:55:22.730Z,0.90
2022-08-10T10:58:01.481Z,0.80
2022-08-10T11:00:39.358Z,0.47
2022-08-10T11:03:31.566Z,0.98
2022-08-10T11:06:12.769Z,0.70
2022-08-10T11:08:47.172Z,0.47
2022-08-10T11:12:00.095Z,1.02
2022-08-10T11:14:39.594Z,1.00
2022-08-10T11:17:20.969Z,0.70
2022-08-10T11:20:11.901Z,1.05
2022-08-10T11:23:10.829Z,0.55
2022-08-10T11:25:42.609Z,0.60
2022-08-10T11:28:20.907Z,1.10
2022-08-10T11:30:51.661Z,0.93
2022-08-10T11:34:03.946Z,0.63
2022-08-10T11:36:59.649Z,0.70
2022-08-10T11:40:20.162Z,0.70
2022-08-10T11:42:55.048Z,0.80
2022-08-10T11:45:36.649Z,0.60
2022-08-10T11:48:54.360Z,0.82
2022-08-10T11:51:18.994Z,0.40
2022-08-10T11:53:57.612Z,0.60
2022-08-10T11:56:45.331Z,0.90
2022-08-10T11:59:32.625Z,0.77
2022-08-10T12:02:00.172Z,0.65
2022-08-10T12:04:28.925Z,0.93
2022-08-10T12:06:56.819Z,0.82
2022-08-10T12:10:04.796Z,0.90
2022-08-10T12:12:12.338Z,0.40
2022-08-10T12:14:59.377Z,0.77
2022-08-10T12:17:43.996Z,0.52
2022-08-10T12:20:31.295Z,0.82
2022-08-10T12:23:08.251Z,0.50
2022-08-10T12:25:57.995Z,1.17
2022-08-10T12:28:51.549Z,0.60
2022-08-10T12:31:25.462Z,0.60
2022-08-10T12:34:26.824Z,0.82
2022-08-10T12:37:51.080Z,0.90
2022-08-10T12:40:36.071Z,0.50
2022-08-10T12:44:05.553Z,0.52
2022-08-10T12:46:07.267Z,0.65
2022-08-10T12:48:48.457Z,0.80
2022-08-10T12:51:20.998Z,0.93
2022-08-10T12:54:15.811Z,0.60
2022-08-10T12:57:00.052Z,0.57
2022-08-10T12:59:28.653Z,0.50
2022-08-10T13:02:10.192Z,0.50
2022-08-10T13:04:39.826Z,0.60
2022-08-10T13:07:07.652Z,0.47
2022-08-10T13:09:55.517Z,0.63
2022-08-10T13:12:36.853Z,0.82
2022-08-10T13:15:45.732Z,0.77
2022-08-10T13:18:18.505Z,0.50
2022-08-10T13:20:51.130Z,0.55
2022-08-10T13:23:30.965Z,0.90
2022-08-10T13:26:01.036Z,0.40
2022-08-10T13:28:45.632Z,0.65
2022-08-10T13:31:18.207Z,0.52
2022-08-10T13:34:38.978Z,0.52
2022-08-10T13:36:43.523Z,0.75
2022-08-10T13:39:12.983Z,1.00
2022-08-10T13:41:42.758Z,0.70
2022-08-10T13:44:12.656Z,0.52
2022-08-10T13:46:42.213Z,0.60
2022-08-10T13:49:11.228Z,0.70
2022-08-10T13:51:53.958Z,0.60
2022-08-10T13:54:27.652Z,0.70
2022-08-10T13:56:55.811Z,0.77
2022-08-10T13:59:27.152Z,0.80
2022-08-10T14:02:21.671Z,1.08
2022-08-10T14:04:48.176Z,0.93
2022-08-10T14:07:17.009Z,0.68
2022-08-10T14:09:47.491Z,1.23
2022-08-10T14:12:15.214Z,1.60
2022-08-10T14:14:43.893Z,0.80
2022-08-10T14:17:12.423Z,0.95
2022-08-10T14:19:43.528Z,1.05
2022-08-10T14:22:10.539Z,0.93
2022-08-10T14:24:37.151Z,0.80
2022-08-10T14:27:11.483Z,1.00
2022-08-10T14:29:43.430Z,0.90
2022-08-10T14:32:12.563Z,1.30
2022-08-10T14:36:15.210Z,1.02
2022-08-10T14:37:38.583Z,0.75
2022-08-10T14:40:13.834Z,0.85
2022-08-10T14:42:49.707Z,0.45
2022-08-10T14:45:29.102Z,0.70
2022-08-10T14:48:15.805Z,0.90
2022-08-10T14:50:54.907Z,0.93
2022-08-10T14:53:26.540Z,0.70
2022-08-10T14:56:02.172Z,0.70
2022-08-10T14:58:38.684Z,0.70
2022-08-10T15:01:07.880Z,1.50
2022-08-10T15:03:58.674Z,1.10
2022-08-10T15:06:31.029Z,0.50
2022-08-10T15:09:25.313Z,0.95
2022-08-10T15:12:13.613Z,0.88
2022-08-10T15:14:47.436Z,0.93
2022-08-10T15:17:26.497Z,0.88
2022-08-10T15:20:03.168Z,0.80
2022-08-10T15:22:38.190Z,0.70
2022-08-10T15:25:17.780Z,1.08
2022-08-10T15:27:55.108Z,0.93
2022-08-10T15:30:30.258Z,0.55
2022-08-10T15:33:21.485Z,1.02
2022-08-10T15:36:26.008Z,0.98
2022-08-10T15:39:02.998Z,0.98
2022-08-10T15:41:58.713Z,0.63
2022-08-10T15:44:41.569Z,0.90
2022-08-10T15:47:45.050Z,0.80
2022-08-10T15:50:24.182Z,0.80
2022-08-10T15:53:00.535Z,0.77
2022-08-10T15:55:41.910Z,0.90
2022-08-10T15:58:18.838Z,1.25
2022-08-10T16:01:04.009Z,0.95
2022-08-10T16:04:08.007Z,0.77
2022-08-10T16:06:59.118Z,1.10
2022-08-10T16:10:23.851Z,1.00
2022-08-10T16:12:29.597Z,1.20
2022-08-10T16:14:59.708Z,1.17
2022-08-10T16:17:28.009Z,0.80
2022-08-10T16:19:57.788Z,1.40
2022-08-10T16:25:12.100Z,0.80
2022-08-10T16:27:41.167Z,1.05
2022-08-10T16:30:07.991Z,0.90
2022-08-10T16:32:36.358Z,1.40
2022-08-10T16:35:09.012Z,0.73
2022-08-10T16:37:57.976Z,0.95
2022-08-10T16:40:26.982Z,1.25
2022-08-10T16:42:55.405Z,0.80
2022-08-10T16:45:39.983Z,1.00
2022-08-10T16:48:08.969Z,0.90
2022-08-10T16:50:41.629Z,0.90
2022-08-10T16:53:16.202Z,0.80
2022-08-10T16:55:58.200Z,1.30
2022-08-10T16:58:35.731Z,0.70
2022-08-10T17:01:07.895Z,1.35
2022-08-10T17:04:06.776Z,1.05
2022-08-10T17:06:35.063Z,1.00
2022-08-10T17:09:04.990Z,0.75
2022-08-10T17:11:37.800Z,0.65
2022-08-10T17:14:08.084Z,0.85
2022-08-10T17:16:41.695Z,0.70
2022-08-10T17:19:17.238Z,0.70
2022-08-10T17:21:51.367Z,0.90
2022-08-10T17:24:22.748Z,0.77
2022-08-10T17:26:51.079Z,0.68
2022-08-10T17:29:57.585Z,0.75
2022-08-10T17:32:20.635Z,0.93
2022-08-10T17:34:52.963Z,1.00
2022-08-10T17:37:24.582Z,1.10
2022-08-10T17:40:01.692Z,1.15
2022-08-10T17:42:30.440Z,0.80
2022-08-10T17:44:58.407Z,1.40
2022-08-10T17:47:27.856Z,1.05
2022-08-10T17:49:57.536Z,0.98
2022-08-10T17:52:29.075Z,0.73
2022-08-10T17:55:03.022Z,0.80
2022-08-10T17:57:36.116Z,1.13
2022-08-10T18:00:05.447Z,0.90
2022-08-10T18:02:36.627Z,1.02
2022-08-10T18:05:04.369Z,1.23
2022-08-10T18:07:43.985Z,1.02
2022-08-10T18:10:14.680Z,1.10
2022-08-10T18:12:46.034Z,1.10
2022-08-10T18:15:16.384Z,0.80
2022-08-10T18:17:48.192Z,1.20
2022-08-10T18:20:20.334Z,0.90
2022-08-10T18:22:55.563Z,1.05
2022-08-10T18:25:29.973Z,1.00
2022-08-10T18:28:04.041Z,1.00
2022-08-10T18:30:36.331Z,1.17
2022-08-10T18:33:08.310Z,1.33
2022-08-10T18:35:35.617Z,0.90
2022-08-10T18:38:03.954Z,0.65
2022-08-10T18:40:36.251Z,0.98
2022-08-10T18:43:11.506Z,1.13
2022-08-10T18:45:56.593Z,1.00
2022-08-10T18:48:33.152Z,1.23
2022-08-10T18:51:05.630Z,1.13
2022-08-10T18:53:38.423Z,1.05
2022-08-10T18:56:32.186Z,0.60
2022-08-10T18:59:17.612Z,1.10
2022-08-10T19:02:19.171Z,0.98
2022-08-10T19:05:31.610Z,1.05
2022-08-10T19:08:09.576Z,1.05
2022-08-10T19:11:02.028Z,0.88
2022-08-10T19:13:34.483Z,1.30
2022-08-10T19:16:16.948Z,1.20
2022-08-10T19:19:22.489Z,1.27
2022-08-10T19:22:02.256Z,1.30
2022-08-10T19:24:48.798Z,1.63
2022-08-10T19:27:36.943Z,1.05
2022-08-10T19:30:13.405Z,1.60
2022-08-10T19:32:58.549Z,1.30
2022-08-10T19:36:06.483Z,1.05
2022-08-10T19:38:50.885Z,0.90
2022-08-10T19:41:32.006Z,1.05
2022-08-10T19:44:21.325Z,1.30
2022-08-10T19:46:59.659Z,1.27
2022-08-10T19:49:53.025Z,1.30
2022-08-10T19:52:38.251Z,1.10
2022-08-10T19:55:14.552Z,1.33
2022-08-10T19:58:00.169Z,1.40
2022-08-10T20:00:38.148Z,1.00
2022-08-10T20:03:41.473Z,1.13
2022-08-10T20:06:20.239Z,1.10
2022-08-10T20:08:59.596Z,0.95
2022-08-10T20:11:46.442Z,1.35
2022-08-10T20:14:29.132Z,1.45
2022-08-10T20:17:02.948Z,1.38
2022-08-10T20:19:53.229Z,1.23
2022-08-10T20:22:28.710Z,1.42
2022-08-10T20:25:02.415Z,1.70
2022-08-10T20:28:00.649Z,1.30
2022-08-10T20:30:29.257Z,1.20
2022-08-10T20:33:05.996Z,1.27
2022-08-10T20:36:07.278Z,1.58
2022-08-10T20:38:39.112Z,1.50
2022-08-10T20:41:15.598Z,1.13
2022-08-10T20:44:10.174Z,1.88
2022-08-10T20:46:56.128Z,2.95
2022-08-10T20:49:36.453Z,2.25
2022-08-10T20:52:05.053Z,1.40
2022-08-10T20:54:35.028Z,1.67
2022-08-10T20:57:56.322Z,1.58
2022-08-10T21:00:13.466Z,1.63
2022-08-10T21:02:50.091Z,1.43
2022-08-10T21:05:20.814Z,1.50
2022-08-10T21:08:06.670Z,1.50
2022-08-10T21:10:57.899Z,1.52
2022-08-10T21:13:42.875Z,1.65
2022-08-10T21:16:36.770Z,1.65
2022-08-10T21:19:04.538Z,1.50
2022-08-10T21:21:58.992Z,1.67
2022-08-10T21:24:37.941Z,1.40
2022-08-10T21:27:27.216Z,1.77
2022-08-10T21:30:14.386Z,1.77
2022-08-10T21:32:40.786Z,1.75
2022-08-10T21:35:37.135Z,2.17
2022-08-10T21:38:04.520Z,1.60
2022-08-10T21:41:17.814Z,2.13
2022-08-10T21:44:05.618Z,1.67
2022-08-10T21:47:10.839Z,1.50
2022-08-10T21:50:17.879Z,1.55
2022-08-10T21:53:28.871Z,1.77
2022-08-10T21:56:39.896Z,1.95
2022-08-10T21:59:35.007Z,1.75
2022-08-10T22:02:28.308Z,1.50
2022-08-10T22:05:20.180Z,1.90
2022-08-10T22:08:12.543Z,1.65
2022-08-10T22:11:04.884Z,1.60
2022-08-10T22:13:56.097Z,1.92
2022-08-10T22:18:03.660Z,2.13
2022-08-10T22:20:55.127Z,1.48
2022-08-10T22:23:40.514Z,2.03
2022-08-10T22:26:56.616Z,1.92
2022-08-10T22:30:01.567Z,1.98
2022-08-10T22:33:07.916Z,2.42
2022-08-10T22:36:05.946Z,2.00
2022-08-10T22:39:11.668Z,1.40
2022-08-10T22:42:20.761Z,1.70
2022-08-10T22:45:10.143Z,1.75
2022-08-10T22:47:55.445Z,1.75
2022-08-10T22:50:28.099Z,1.92
2022-08-10T22:53:04.688Z,2.58
2022-08-10T22:56:09.930Z,2.40
2022-08-10T22:58:42.553Z,1.83
2022-08-10T23:01:40.706Z,2.03
2022-08-10T23:04:34.787Z,2.13
2022-08-10T23:07:18.940Z,2.13
2022-08-10T23:09:51.876Z,2.25
2022-08-10T23:12:25.544Z,2.10
2022-08-10T23:15:13.103Z,2.58
2022-08-10T23:18:00.933Z,1.90
2022-08-10T23:20:30.058Z,2.17
2022-08-10T23:23:04.733Z,2.20
2022-08-10T23:25:43.697Z,2.22
2022-08-10T23:28:39.283Z,2.35
2022-08-10T23:31:14.803Z,1.98
2022-08-10T23:33:42.832Z,2.25
2022-08-10T23:36:33.976Z,2.60
2022-08-10T23:39:25.577Z,2.15
2022-08-10T23:41:54.804Z,1.95
2022-08-10T23:44:22.694Z,2.05
2022-08-10T23:46:50.050Z,2.08
2022-08-10T23:49:18.988Z,2.17
2022-08-10T23:51:54.736Z,1.70
2022-08-10T23:54:24.893Z,1.75
2022-08-10T23:57:00.792Z,1.38
2022-08-10T23:59:31.804Z,1.80
